Thursday, October 02, 2014
00:26 UTC
  |  Log In   |  Register Free
Airport Search:

Modesto City-Co-Harry Sham Fld Airport
(KMOD)

FAA data valid effective September 18, 2014 - November 13, 2014 (unless otherwise noted).

 
 
 
 
 
 
 
 
 
 
 
 
 
 

Current Aviation Weather for Modesto City-Co-Harry Sham Fld Airport (KMOD)

The most recent METAR observation for KMOD was updated at: 0011
METAR Summary (Translated METAR)
KMOD
012353Z 33008KT 10SM CLR 28/01 A2985 RMK AO2 SLP107 T02830011 10294 20222 55005
KSCK
012355Z 32009KT 10SM CLR 28/06 A2985 RMK AO2 SLP106 T02830056 10300 20233 56005
(21 nm NW from KMOD)
KMER
012345Z 02006KT 10SM SKC 29/03 A2986
(23.5 nm SE from KMOD)
TAF Summary (Translated TAF)
KSCK
(21 nm NW from KMOD)
011720Z 0118/0218 32013G19KT P6SM SKC FM020300 32006KT P6SM SKC
KMER
(23.5 nm SE from KMOD)
011736Z 0118/0218 32009KT P6SM SKC FM020400 VRB03KT P6SM SKC
  Airport Weather Conditions for KMOD

 Current Weather at MOD
83° F
Fair
Northwest winds at 9.2 mph
MOD NOAA Radar

Pressure: 29.85 in
Humidity: 17%
Wind: Northwest at 9.2 MPH (8 KT)
Dew Point: 34.0°F
Visibility: 10.00 mi


Airport Weather Forecast for KMOD

Translated METAR and TAF for KMOD
Translated METAR for KMOD (0021 UTC 02 October 2014)
found at http://aviationweather.gov/adds/metars/
 
METAR text: KMOD 012353Z 33008KT 10SM CLR 28/01 A2985 RMK AO2 SLP107 T02830011 10294 20222 55005
Conditions at: KMOD (MODESTO , CA, US) observed 2353 UTC 01 October 2014
Temperature: 28.3°C (83°F)
Dewpoint: 1.1°C (34°F) [RH = 17%]
Pressure (altimeter): 29.85 inches Hg (1010.9 mb)
[Sea-level pressure: 1010.7 mb]
Winds: from the NNW (330 degrees) at 9 MPH (8 knots; 4.2 m/s)
Visibility: 10 or more miles (16+ km)
Ceiling: at least 12,000 feet AGL
Clouds: sky clear below 12,000 feet AGL
Weather: no significant weather observed at this time
Translated TAF for KMOD

There is no translated TAF available for this airport

Find All Airport Services Find A Hotel Find A Rental Car Find A Golf Course Find A Restaurant $100 Hamburger



FBO's on the Field
FBO Company Facility Photos Services Transportation Aviation Fuel Prices: Prices include tax
Catering Weather Repair Courtesy Rental Type 100LL JetA JetA+ MOGAS 8087
 
Sky Trek Aviation

This FBO has not yet been rated
FS:Avfuel
Last Updated: Aug-27
Login to update fuel prices
SS:
Contact Sky Trek AviationMore FBO Information
 
Add another FBO Facility Photos Catering Weather Repair Courtesy Rental Type 100LL JetA JetA+ MOGAS 8087
Services Transportation Aviation Fuel Prices: Prices include tax


model-print
model-print
model-print
model-print